sensor_id;sensor_type;location;lat;lon;timestamp;P1;durP1;ratioP1;P2;durP2;ratioP2
72603;SDS011;60645;56.968;24.196;2023-04-21T00:00:53;2.37;;;1.00;;
72603;SDS011;60645;56.968;24.196;2023-04-21T00:03:21;1.70;;;0.80;;
72603;SDS011;60645;56.968;24.196;2023-04-21T00:05:49;2.75;;;0.93;;
72603;SDS011;60645;56.968;24.196;2023-04-21T00:08:17;2.97;;;1.00;;
72603;SDS011;60645;56.968;24.196;2023-04-21T00:10:44;2.45;;;0.80;;
72603;SDS011;60645;56.968;24.196;2023-04-21T00:13:14;1.75;;;1.02;;
72603;SDS011;60645;56.968;24.196;2023-04-21T00:15:41;3.45;;;1.23;;
72603;SDS011;60645;56.968;24.196;2023-04-21T00:18:08;2.45;;;1.05;;
72603;SDS011;60645;56.968;24.196;2023-04-21T00:20:35;2.50;;;1.00;;
72603;SDS011;60645;56.968;24.196;2023-04-21T00:23:02;2.40;;;1.00;;
72603;SDS011;60645;56.968;24.196;2023-04-21T00:25:29;2.75;;;1.25;;
72603;SDS011;60645;56.968;24.196;2023-04-21T00:27:56;3.90;;;1.30;;
72603;SDS011;60645;56.968;24.196;2023-04-21T00:30:23;16.08;;;6.35;;
72603;SDS011;60645;56.968;24.196;2023-04-21T00:32:50;28.88;;;11.30;;
72603;SDS011;60645;56.968;24.196;2023-04-21T00:35:17;67.20;;;24.07;;
72603;SDS011;60645;56.968;24.196;2023-04-21T00:37:44;41.90;;;14.52;;
72603;SDS011;60645;56.968;24.196;2023-04-21T00:40:11;72.25;;;25.30;;
72603;SDS011;60645;56.968;24.196;2023-04-21T00:42:38;77.43;;;27.55;;
72603;SDS011;60645;56.968;24.196;2023-04-21T00:45:05;94.28;;;33.85;;
72603;SDS011;60645;56.968;24.196;2023-04-21T00:47:33;84.65;;;31.48;;
72603;SDS011;60645;56.968;24.196;2023-04-21T00:50:00;56.72;;;22.85;;
72603;SDS011;60645;56.968;24.196;2023-04-21T00:52:29;39.33;;;16.20;;
72603;SDS011;60645;56.968;24.196;2023-04-21T00:54:56;25.15;;;10.13;;
72603;SDS011;60645;56.968;24.196;2023-04-21T00:57:24;18.20;;;9.05;;
72603;SDS011;60645;56.968;24.196;2023-04-21T00:59:54;24.83;;;10.60;;
72603;SDS011;60645;56.968;24.196;2023-04-21T01:02:20;13.25;;;6.65;;
72603;SDS011;60645;56.968;24.196;2023-04-21T01:04:48;8.10;;;3.22;;
72603;SDS011;60645;56.968;24.196;2023-04-21T01:07:15;12.32;;;3.83;;
72603;SDS011;60645;56.968;24.196;2023-04-21T01:09:42;9.75;;;4.43;;
72603;SDS011;60645;56.968;24.196;2023-04-21T01:12:09;12.18;;;5.85;;
72603;SDS011;60645;56.968;24.196;2023-04-21T01:14:37;21.53;;;10.40;;
72603;SDS011;60645;56.968;24.196;2023-04-21T01:17:05;35.88;;;14.70;;
72603;SDS011;60645;56.968;24.196;2023-04-21T01:19:34;45.85;;;17.35;;
72603;SDS011;60645;56.968;24.196;2023-04-21T01:22:07;52.67;;;21.23;;
72603;SDS011;60645;56.968;24.196;2023-04-21T01:24:39;41.10;;;18.45;;
72603;SDS011;60645;56.968;24.196;2023-04-21T01:27:11;41.58;;;17.92;;
72603;SDS011;60645;56.968;24.196;2023-04-21T01:29:40;24.42;;;11.60;;
72603;SDS011;60645;56.968;24.196;2023-04-21T01:32:09;25.33;;;11.63;;
72603;SDS011;60645;56.968;24.196;2023-04-21T01:34:40;22.55;;;8.70;;
72603;SDS011;60645;56.968;24.196;2023-04-21T01:37:11;20.20;;;9.15;;
72603;SDS011;60645;56.968;24.196;2023-04-21T01:39:40;21.45;;;9.02;;
72603;SDS011;60645;56.968;24.196;2023-04-21T01:42:17;24.92;;;11.05;;
72603;SDS011;60645;56.968;24.196;2023-04-21T01:44:45;34.65;;;16.40;;
72603;SDS011;60645;56.968;24.196;2023-04-21T01:47:12;35.90;;;17.60;;
72603;SDS011;60645;56.968;24.196;2023-04-21T01:49:39;33.83;;;17.08;;
72603;SDS011;60645;56.968;24.196;2023-04-21T01:52:06;34.90;;;17.17;;
72603;SDS011;60645;56.968;24.196;2023-04-21T01:54:33;26.55;;;15.02;;
72603;SDS011;60645;56.968;24.196;2023-04-21T01:57:01;29.83;;;14.63;;
72603;SDS011;60645;56.968;24.196;2023-04-21T01:59:28;26.17;;;14.13;;
72603;SDS011;60645;56.968;24.196;2023-04-21T02:01:55;20.23;;;11.30;;
72603;SDS011;60645;56.968;24.196;2023-04-21T02:04:22;20.30;;;10.63;;
72603;SDS011;60645;56.968;24.196;2023-04-21T02:06:49;15.47;;;6.73;;
72603;SDS011;60645;56.968;24.196;2023-04-21T02:09:16;14.05;;;7.25;;
72603;SDS011;60645;56.968;24.196;2023-04-21T02:11:43;13.20;;;6.63;;
72603;SDS011;60645;56.968;24.196;2023-04-21T02:14:10;12.75;;;7.10;;
72603;SDS011;60645;56.968;24.196;2023-04-21T02:16:37;14.02;;;6.85;;
72603;SDS011;60645;56.968;24.196;2023-04-21T02:19:04;14.43;;;6.57;;
72603;SDS011;60645;56.968;24.196;2023-04-21T02:21:31;11.27;;;6.88;;
72603;SDS011;60645;56.968;24.196;2023-04-21T02:23:58;10.40;;;5.65;;
72603;SDS011;60645;56.968;24.196;2023-04-21T02:26:25;9.98;;;5.50;;
72603;SDS011;60645;56.968;24.196;2023-04-21T02:28:52;8.57;;;4.65;;
72603;SDS011;60645;56.968;24.196;2023-04-21T02:31:19;7.70;;;4.82;;
72603;SDS011;60645;56.968;24.196;2023-04-21T02:33:46;6.28;;;4.70;;
72603;SDS011;60645;56.968;24.196;2023-04-21T02:36:12;7.40;;;4.60;;
72603;SDS011;60645;56.968;24.196;2023-04-21T02:38:39;8.05;;;4.40;;
72603;SDS011;60645;56.968;24.196;2023-04-21T02:41:06;7.20;;;3.63;;
72603;SDS011;60645;56.968;24.196;2023-04-21T02:43:33;7.95;;;4.15;;
72603;SDS011;60645;56.968;24.196;2023-04-21T02:46:04;8.10;;;4.22;;
72603;SDS011;60645;56.968;24.196;2023-04-21T02:48:34;8.98;;;4.45;;
72603;SDS011;60645;56.968;24.196;2023-04-21T02:51:02;7.03;;;4.63;;
72603;SDS011;60645;56.968;24.196;2023-04-21T02:53:30;10.75;;;4.60;;
72603;SDS011;60645;56.968;24.196;2023-04-21T02:55:56;8.57;;;4.78;;
72603;SDS011;60645;56.968;24.196;2023-04-21T02:58:23;8.52;;;5.05;;
72603;SDS011;60645;56.968;24.196;2023-04-21T03:00:50;7.68;;;4.40;;
72603;SDS011;60645;56.968;24.196;2023-04-21T03:03:17;7.50;;;4.32;;
72603;SDS011;60645;56.968;24.196;2023-04-21T03:05:45;9.77;;;4.15;;
72603;SDS011;60645;56.968;24.196;2023-04-21T03:08:11;7.60;;;4.57;;
72603;SDS011;60645;56.968;24.196;2023-04-21T03:10:38;8.18;;;4.38;;
72603;SDS011;60645;56.968;24.196;2023-04-21T03:13:05;12.33;;;4.60;;
72603;SDS011;60645;56.968;24.196;2023-04-21T03:15:32;6.80;;;4.22;;
72603;SDS011;60645;56.968;24.196;2023-04-21T03:17:59;7.10;;;4.10;;
72603;SDS011;60645;56.968;24.196;2023-04-21T03:20:26;7.43;;;4.47;;
72603;SDS011;60645;56.968;24.196;2023-04-21T03:22:53;9.85;;;4.18;;
72603;SDS011;60645;56.968;24.196;2023-04-21T03:25:20;6.30;;;4.50;;
72603;SDS011;60645;56.968;24.196;2023-04-21T03:27:47;7.43;;;4.47;;
72603;SDS011;60645;56.968;24.196;2023-04-21T03:30:14;10.40;;;4.53;;
72603;SDS011;60645;56.968;24.196;2023-04-21T03:32:40;7.65;;;5.13;;
72603;SDS011;60645;56.968;24.196;2023-04-21T03:35:07;7.68;;;4.65;;
72603;SDS011;60645;56.968;24.196;2023-04-21T03:37:34;9.18;;;5.28;;
72603;SDS011;60645;56.968;24.196;2023-04-21T03:40:02;9.13;;;4.50;;
72603;SDS011;60645;56.968;24.196;2023-04-21T03:42:31;6.53;;;4.00;;
72603;SDS011;60645;56.968;24.196;2023-04-21T03:45:05;6.22;;;4.57;;
72603;SDS011;60645;56.968;24.196;2023-04-21T03:47:35;5.93;;;4.45;;
72603;SDS011;60645;56.968;24.196;2023-04-21T03:50:03;6.55;;;4.38;;
72603;SDS011;60645;56.968;24.196;2023-04-21T03:52:31;9.02;;;4.82;;
72603;SDS011;60645;56.968;24.196;2023-04-21T03:54:58;14.68;;;6.10;;
72603;SDS011;60645;56.968;24.196;2023-04-21T03:57:25;12.50;;;5.67;;
72603;SDS011;60645;56.968;24.196;2023-04-21T03:59:52;10.52;;;5.68;;
72603;SDS011;60645;56.968;24.196;2023-04-21T04:02:19;10.40;;;5.10;;
72603;SDS011;60645;56.968;24.196;2023-04-21T04:04:46;10.23;;;5.47;;
72603;SDS011;60645;56.968;24.196;2023-04-21T04:07:14;13.40;;;5.80;;
72603;SDS011;60645;56.968;24.196;2023-04-21T04:09:42;11.50;;;5.07;;
72603;SDS011;60645;56.968;24.196;2023-04-21T04:12:09;9.48;;;4.78;;
72603;SDS011;60645;56.968;24.196;2023-04-21T04:14:37;12.30;;;4.53;;
72603;SDS011;60645;56.968;24.196;2023-04-21T04:17:04;11.43;;;3.92;;
72603;SDS011;60645;56.968;24.196;2023-04-21T04:19:31;8.47;;;4.20;;
72603;SDS011;60645;56.968;24.196;2023-04-21T04:21:59;11.00;;;4.00;;
72603;SDS011;60645;56.968;24.196;2023-04-21T04:24:26;6.10;;;3.20;;
72603;SDS011;60645;56.968;24.196;2023-04-21T04:26:54;6.80;;;2.92;;
72603;SDS011;60645;56.968;24.196;2023-04-21T04:29:23;6.82;;;2.90;;
72603;SDS011;60645;56.968;24.196;2023-04-21T04:31:50;6.40;;;2.90;;
72603;SDS011;60645;56.968;24.196;2023-04-21T04:34:17;6.28;;;2.75;;
72603;SDS011;60645;56.968;24.196;2023-04-21T04:36:44;5.60;;;2.50;;
72603;SDS011;60645;56.968;24.196;2023-04-21T04:39:13;4.88;;;2.97;;
72603;SDS011;60645;56.968;24.196;2023-04-21T04:41:41;6.30;;;2.90;;
72603;SDS011;60645;56.968;24.196;2023-04-21T04:44:08;5.32;;;3.08;;
72603;SDS011;60645;56.968;24.196;2023-04-21T04:46:36;8.43;;;3.20;;
72603;SDS011;60645;56.968;24.196;2023-04-21T04:49:04;8.65;;;3.53;;
72603;SDS011;60645;56.968;24.196;2023-04-21T04:51:31;8.45;;;3.72;;
72603;SDS011;60645;56.968;24.196;2023-04-21T04:53:59;7.38;;;3.45;;
72603;SDS011;60645;56.968;24.196;2023-04-21T04:56:26;7.40;;;3.50;;
72603;SDS011;60645;56.968;24.196;2023-04-21T04:58:54;6.85;;;2.95;;
72603;SDS011;60645;56.968;24.196;2023-04-21T05:01:22;8.20;;;3.30;;
72603;SDS011;60645;56.968;24.196;2023-04-21T05:03:55;9.50;;;3.30;;
72603;SDS011;60645;56.968;24.196;2023-04-21T05:06:23;8.50;;;3.45;;
72603;SDS011;60645;56.968;24.196;2023-04-21T05:08:50;7.93;;;3.47;;
72603;SDS011;60645;56.968;24.196;2023-04-21T05:11:17;8.97;;;3.10;;
72603;SDS011;60645;56.968;24.196;2023-04-21T05:13:44;7.43;;;3.42;;
72603;SDS011;60645;56.968;24.196;2023-04-21T05:16:11;8.27;;;3.33;;
72603;SDS011;60645;56.968;24.196;2023-04-21T05:18:38;9.27;;;4.15;;
72603;SDS011;60645;56.968;24.196;2023-04-21T05:21:04;7.80;;;4.20;;
72603;SDS011;60645;56.968;24.196;2023-04-21T05:23:31;9.10;;;3.47;;
72603;SDS011;60645;56.968;24.196;2023-04-21T05:25:58;8.97;;;4.00;;
72603;SDS011;60645;56.968;24.196;2023-04-21T05:28:29;8.90;;;3.17;;
72603;SDS011;60645;56.968;24.196;2023-04-21T05:30:57;10.20;;;3.95;;
72603;SDS011;60645;56.968;24.196;2023-04-21T05:33:23;10.27;;;4.30;;
72603;SDS011;60645;56.968;24.196;2023-04-21T05:35:52;11.68;;;4.30;;
72603;SDS011;60645;56.968;24.196;2023-04-21T05:38:19;9.75;;;4.53;;
72603;SDS011;60645;56.968;24.196;2023-04-21T05:40:51;12.02;;;4.25;;
72603;SDS011;60645;56.968;24.196;2023-04-21T05:43:19;10.48;;;5.50;;
72603;SDS011;60645;56.968;24.196;2023-04-21T05:45:46;11.55;;;5.82;;
72603;SDS011;60645;56.968;24.196;2023-04-21T05:48:13;10.98;;;6.50;;
72603;SDS011;60645;56.968;24.196;2023-04-21T05:50:40;12.20;;;6.63;;
72603;SDS011;60645;56.968;24.196;2023-04-21T05:53:07;12.30;;;6.95;;
72603;SDS011;60645;56.968;24.196;2023-04-21T05:55:34;13.80;;;7.03;;
72603;SDS011;60645;56.968;24.196;2023-04-21T05:58:02;16.05;;;7.43;;
72603;SDS011;60645;56.968;24.196;2023-04-21T06:00:30;12.50;;;8.10;;
72603;SDS011;60645;56.968;24.196;2023-04-21T06:02:57;14.23;;;8.95;;
72603;SDS011;60645;56.968;24.196;2023-04-21T06:05:24;17.23;;;10.73;;
72603;SDS011;60645;56.968;24.196;2023-04-21T06:07:51;17.25;;;13.00;;
72603;SDS011;60645;56.968;24.196;2023-04-21T06:10:19;18.10;;;13.82;;
72603;SDS011;60645;56.968;24.196;2023-04-21T06:12:46;18.40;;;14.90;;
72603;SDS011;60645;56.968;24.196;2023-04-21T06:15:14;16.13;;;11.93;;
72603;SDS011;60645;56.968;24.196;2023-04-21T06:17:41;17.33;;;9.30;;
72603;SDS011;60645;56.968;24.196;2023-04-21T06:20:08;13.65;;;9.35;;
72603;SDS011;60645;56.968;24.196;2023-04-21T06:22:36;13.60;;;9.32;;
72603;SDS011;60645;56.968;24.196;2023-04-21T06:25:04;13.15;;;10.35;;
72603;SDS011;60645;56.968;24.196;2023-04-21T06:27:31;13.00;;;10.93;;
72603;SDS011;60645;56.968;24.196;2023-04-21T06:29:58;15.55;;;11.25;;
72603;SDS011;60645;56.968;24.196;2023-04-21T06:32:25;14.18;;;11.40;;
72603;SDS011;60645;56.968;24.196;2023-04-21T06:34:52;15.35;;;12.50;;
72603;SDS011;60645;56.968;24.196;2023-04-21T06:37:19;11.27;;;9.65;;
72603;SDS011;60645;56.968;24.196;2023-04-21T06:39:46;15.15;;;11.77;;
72603;SDS011;60645;56.968;24.196;2023-04-21T06:42:13;10.45;;;8.90;;
72603;SDS011;60645;56.968;24.196;2023-04-21T06:44:40;8.43;;;6.57;;
72603;SDS011;60645;56.968;24.196;2023-04-21T06:47:07;7.28;;;5.22;;
72603;SDS011;60645;56.968;24.196;2023-04-21T06:49:34;8.23;;;4.13;;
72603;SDS011;60645;56.968;24.196;2023-04-21T06:52:02;7.55;;;3.25;;
72603;SDS011;60645;56.968;24.196;2023-04-21T06:54:29;5.80;;;2.65;;
72603;SDS011;60645;56.968;24.196;2023-04-21T06:56:56;5.38;;;3.28;;
72603;SDS011;60645;56.968;24.196;2023-04-21T06:59:23;7.15;;;2.92;;
72603;SDS011;60645;56.968;24.196;2023-04-21T07:01:50;6.75;;;2.55;;
72603;SDS011;60645;56.968;24.196;2023-04-21T07:04:17;5.95;;;1.83;;
72603;SDS011;60645;56.968;24.196;2023-04-21T07:06:45;6.00;;;1.92;;
72603;SDS011;60645;56.968;24.196;2023-04-21T07:09:12;5.43;;;2.30;;
72603;SDS011;60645;56.968;24.196;2023-04-21T07:11:39;5.20;;;2.45;;
72603;SDS011;60645;56.968;24.196;2023-04-21T07:14:06;7.90;;;4.30;;
72603;SDS011;60645;56.968;24.196;2023-04-21T07:16:33;6.20;;;2.90;;
72603;SDS011;60645;56.968;24.196;2023-04-21T07:19:00;4.53;;;2.72;;
72603;SDS011;60645;56.968;24.196;2023-04-21T07:21:27;5.80;;;2.50;;
72603;SDS011;60645;56.968;24.196;2023-04-21T07:23:55;5.85;;;2.25;;
72603;SDS011;60645;56.968;24.196;2023-04-21T07:26:23;5.47;;;1.77;;
72603;SDS011;60645;56.968;24.196;2023-04-21T07:28:50;4.90;;;2.43;;
72603;SDS011;60645;56.968;24.196;2023-04-21T07:31:18;4.82;;;1.98;;
72603;SDS011;60645;56.968;24.196;2023-04-21T07:33:45;4.35;;;1.33;;
72603;SDS011;60645;56.968;24.196;2023-04-21T07:36:12;4.50;;;2.20;;
72603;SDS011;60645;56.968;24.196;2023-04-21T07:38:38;3.90;;;1.83;;
72603;SDS011;60645;56.968;24.196;2023-04-21T07:41:09;4.77;;;1.50;;
72603;SDS011;60645;56.968;24.196;2023-04-21T07:43:38;3.83;;;1.35;;
72603;SDS011;60645;56.968;24.196;2023-04-21T07:46:06;4.50;;;1.20;;
72603;SDS011;60645;56.968;24.196;2023-04-21T07:48:33;4.53;;;2.17;;
72603;SDS011;60645;56.968;24.196;2023-04-21T07:51:00;6.20;;;2.50;;
72603;SDS011;60645;56.968;24.196;2023-04-21T07:53:28;4.60;;;2.20;;
72603;SDS011;60645;56.968;24.196;2023-04-21T07:55:56;6.45;;;2.00;;
72603;SDS011;60645;56.968;24.196;2023-04-21T07:58:23;5.53;;;1.60;;
72603;SDS011;60645;56.968;24.196;2023-04-21T08:00:50;2.65;;;1.20;;
72603;SDS011;60645;56.968;24.196;2023-04-21T08:03:17;3.53;;;1.30;;
72603;SDS011;60645;56.968;24.196;2023-04-21T08:05:48;8.55;;;1.33;;
72603;SDS011;60645;56.968;24.196;2023-04-21T08:08:16;8.32;;;1.50;;
72603;SDS011;60645;56.968;24.196;2023-04-21T08:10:45;17.35;;;1.50;;
72603;SDS011;60645;56.968;24.196;2023-04-21T08:13:12;6.70;;;1.57;;
72603;SDS011;60645;56.968;24.196;2023-04-21T08:15:39;9.23;;;1.27;;
72603;SDS011;60645;56.968;24.196;2023-04-21T08:18:06;23.75;;;2.60;;
72603;SDS011;60645;56.968;24.196;2023-04-21T08:20:34;11.70;;;2.20;;
72603;SDS011;60645;56.968;24.196;2023-04-21T08:23:01;9.57;;;1.55;;
72603;SDS011;60645;56.968;24.196;2023-04-21T08:25:28;9.52;;;2.28;;
72603;SDS011;60645;56.968;24.196;2023-04-21T08:27:56;12.15;;;2.10;;
72603;SDS011;60645;56.968;24.196;2023-04-21T08:30:24;3.90;;;1.63;;
72603;SDS011;60645;56.968;24.196;2023-04-21T08:32:52;6.22;;;2.30;;
72603;SDS011;60645;56.968;24.196;2023-04-21T08:35:19;6.45;;;1.98;;
72603;SDS011;60645;56.968;24.196;2023-04-21T08:37:46;9.40;;;2.22;;
72603;SDS011;60645;56.968;24.196;2023-04-21T08:40:15;4.60;;;1.45;;
72603;SDS011;60645;56.968;24.196;2023-04-21T08:42:43;6.88;;;1.67;;
72603;SDS011;60645;56.968;24.196;2023-04-21T08:45:11;4.93;;;1.60;;
72603;SDS011;60645;56.968;24.196;2023-04-21T08:47:39;4.00;;;1.42;;
72603;SDS011;60645;56.968;24.196;2023-04-21T08:50:10;6.72;;;1.95;;
72603;SDS011;60645;56.968;24.196;2023-04-21T08:52:38;4.95;;;1.58;;
72603;SDS011;60645;56.968;24.196;2023-04-21T08:55:05;5.97;;;2.00;;
72603;SDS011;60645;56.968;24.196;2023-04-21T08:57:35;5.05;;;1.95;;
72603;SDS011;60645;56.968;24.196;2023-04-21T09:00:17;5.28;;;1.65;;
72603;SDS011;60645;56.968;24.196;2023-04-21T09:05:28;3.92;;;1.10;;
72603;SDS011;60645;56.968;24.196;2023-04-21T09:10:55;6.32;;;1.30;;
72603;SDS011;60645;56.968;24.196;2023-04-21T09:15:58;3.17;;;1.05;;
72603;SDS011;60645;56.968;24.196;2023-04-21T09:18:26;6.50;;;1.05;;
72603;SDS011;60645;56.968;24.196;2023-04-21T09:21:05;2.38;;;0.80;;
72603;SDS011;60645;56.968;24.196;2023-04-21T09:23:42;4.17;;;1.10;;
72603;SDS011;60645;56.968;24.196;2023-04-21T09:26:15;4.30;;;1.05;;
72603;SDS011;60645;56.968;24.196;2023-04-21T09:28:44;4.55;;;1.40;;
72603;SDS011;60645;56.968;24.196;2023-04-21T09:31:16;5.10;;;1.45;;
72603;SDS011;60645;56.968;24.196;2023-04-21T09:33:54;5.60;;;1.88;;
72603;SDS011;60645;56.968;24.196;2023-04-21T09:36:26;6.50;;;3.55;;
72603;SDS011;60645;56.968;24.196;2023-04-21T09:41:30;5.68;;;2.20;;
72603;SDS011;60645;56.968;24.196;2023-04-21T09:43:58;9.43;;;3.28;;
72603;SDS011;60645;56.968;24.196;2023-04-21T09:46:32;8.50;;;3.50;;
72603;SDS011;60645;56.968;24.196;2023-04-21T09:49:00;9.82;;;5.95;;
72603;SDS011;60645;56.968;24.196;2023-04-21T09:51:28;14.27;;;6.65;;
72603;SDS011;60645;56.968;24.196;2023-04-21T09:54:17;16.85;;;10.50;;
72603;SDS011;60645;56.968;24.196;2023-04-21T09:56:49;14.93;;;12.35;;
72603;SDS011;60645;56.968;24.196;2023-04-21T09:59:24;21.08;;;15.95;;
72603;SDS011;60645;56.968;24.196;2023-04-21T10:01:53;31.47;;;19.47;;
72603;SDS011;60645;56.968;24.196;2023-04-21T10:04:23;22.08;;;17.00;;
72603;SDS011;60645;56.968;24.196;2023-04-21T10:06:51;29.42;;;21.42;;
72603;SDS011;60645;56.968;24.196;2023-04-21T10:09:20;33.63;;;23.58;;
72603;SDS011;60645;56.968;24.196;2023-04-21T10:11:50;30.35;;;22.27;;
72603;SDS011;60645;56.968;24.196;2023-04-21T10:14:19;30.17;;;23.15;;
72603;SDS011;60645;56.968;24.196;2023-04-21T10:17:06;27.45;;;17.80;;
72603;SDS011;60645;56.968;24.196;2023-04-21T10:19:35;19.35;;;13.98;;
72603;SDS011;60645;56.968;24.196;2023-04-21T10:22:09;17.05;;;11.55;;
72603;SDS011;60645;56.968;24.196;2023-04-21T10:24:40;17.05;;;9.48;;
72603;SDS011;60645;56.968;24.196;2023-04-21T10:27:08;17.52;;;9.38;;
72603;SDS011;60645;56.968;24.196;2023-04-21T10:29:37;13.68;;;10.43;;
72603;SDS011;60645;56.968;24.196;2023-04-21T10:38:33;11.32;;;5.20;;
72603;SDS011;60645;56.968;24.196;2023-04-21T10:57:33;16.77;;;6.30;;
72603;SDS011;60645;56.968;24.196;2023-04-21T11:00:01;9.43;;;6.15;;
72603;SDS011;60645;56.968;24.196;2023-04-21T11:02:32;11.55;;;4.85;;
72603;SDS011;60645;56.968;24.196;2023-04-21T11:05:05;14.32;;;4.65;;
72603;SDS011;60645;56.968;24.196;2023-04-21T11:07:37;10.82;;;4.63;;
72603;SDS011;60645;56.968;24.196;2023-04-21T11:10:05;11.73;;;4.38;;
72603;SDS011;60645;56.968;24.196;2023-04-21T11:12:33;7.45;;;3.55;;
72603;SDS011;60645;56.968;24.196;2023-04-21T11:15:08;8.18;;;3.10;;
72603;SDS011;60645;56.968;24.196;2023-04-21T11:17:37;8.38;;;2.88;;
72603;SDS011;60645;56.968;24.196;2023-04-21T11:20:05;9.45;;;3.15;;
72603;SDS011;60645;56.968;24.196;2023-04-21T11:22:33;8.90;;;3.43;;
72603;SDS011;60645;56.968;24.196;2023-04-21T11:25:02;8.75;;;2.97;;
72603;SDS011;60645;56.968;24.196;2023-04-21T11:27:29;14.90;;;3.50;;
72603;SDS011;60645;56.968;24.196;2023-04-21T11:29:58;11.55;;;3.63;;
72603;SDS011;60645;56.968;24.196;2023-04-21T11:32:28;11.77;;;3.90;;
72603;SDS011;60645;56.968;24.196;2023-04-21T11:34:56;9.65;;;4.47;;
72603;SDS011;60645;56.968;24.196;2023-04-21T11:37:26;10.43;;;3.88;;
72603;SDS011;60645;56.968;24.196;2023-04-21T11:39:59;8.18;;;3.30;;
72603;SDS011;60645;56.968;24.196;2023-04-21T11:42:26;9.73;;;4.75;;
72603;SDS011;60645;56.968;24.196;2023-04-21T11:44:54;11.07;;;4.32;;
72603;SDS011;60645;56.968;24.196;2023-04-21T11:47:22;10.25;;;3.92;;
72603;SDS011;60645;56.968;24.196;2023-04-21T11:49:54;11.68;;;3.70;;
72603;SDS011;60645;56.968;24.196;2023-04-21T11:52:26;6.50;;;1.83;;
72603;SDS011;60645;56.968;24.196;2023-04-21T11:55:07;7.40;;;2.05;;
72603;SDS011;60645;56.968;24.196;2023-04-21T11:57:41;9.52;;;3.20;;
72603;SDS011;60645;56.968;24.196;2023-04-21T12:00:09;9.05;;;1.80;;
72603;SDS011;60645;56.968;24.196;2023-04-21T12:02:39;6.90;;;1.20;;
72603;SDS011;60645;56.968;24.196;2023-04-21T12:05:10;5.68;;;0.80;;
72603;SDS011;60645;56.968;24.196;2023-04-21T12:07:42;10.90;;;3.97;;
72603;SDS011;60645;56.968;24.196;2023-04-21T12:10:11;5.88;;;1.45;;
72603;SDS011;60645;56.968;24.196;2023-04-21T12:12:46;11.00;;;1.70;;
72603;SDS011;60645;56.968;24.196;2023-04-21T12:15:17;5.63;;;1.10;;
72603;SDS011;60645;56.968;24.196;2023-04-21T12:17:47;7.18;;;1.02;;
72603;SDS011;60645;56.968;24.196;2023-04-21T12:20:16;5.50;;;1.70;;
72603;SDS011;60645;56.968;24.196;2023-04-21T12:22:45;4.97;;;1.15;;
72603;SDS011;60645;56.968;24.196;2023-04-21T12:25:12;6.15;;;1.23;;
72603;SDS011;60645;56.968;24.196;2023-04-21T12:28:14;6.07;;;1.00;;
72603;SDS011;60645;56.968;24.196;2023-04-21T12:30:34;5.15;;;1.00;;
72603;SDS011;60645;56.968;24.196;2023-04-21T12:33:06;5.38;;;0.80;;
72603;SDS011;60645;56.968;24.196;2023-04-21T12:35:33;6.00;;;1.10;;
72603;SDS011;60645;56.968;24.196;2023-04-21T12:38:00;5.47;;;1.33;;
72603;SDS011;60645;56.968;24.196;2023-04-21T12:40:27;7.93;;;1.65;;
72603;SDS011;60645;56.968;24.196;2023-04-21T12:42:54;6.22;;;1.20;;
72603;SDS011;60645;56.968;24.196;2023-04-21T12:45:21;6.78;;;1.67;;
72603;SDS011;60645;56.968;24.196;2023-04-21T12:47:48;5.25;;;1.30;;
72603;SDS011;60645;56.968;24.196;2023-04-21T12:50:15;7.68;;;1.52;;
72603;SDS011;60645;56.968;24.196;2023-04-21T12:52:42;11.10;;;1.50;;
72603;SDS011;60645;56.968;24.196;2023-04-21T12:55:09;9.30;;;1.15;;
72603;SDS011;60645;56.968;24.196;2023-04-21T12:57:38;8.52;;;1.42;;
72603;SDS011;60645;56.968;24.196;2023-04-21T13:00:05;11.45;;;1.88;;
72603;SDS011;60645;56.968;24.196;2023-04-21T13:02:33;9.68;;;1.80;;
72603;SDS011;60645;56.968;24.196;2023-04-21T13:05:02;6.93;;;1.50;;
72603;SDS011;60645;56.968;24.196;2023-04-21T13:07:32;9.73;;;1.70;;
72603;SDS011;60645;56.968;24.196;2023-04-21T13:09:59;5.53;;;1.33;;
72603;SDS011;60645;56.968;24.196;2023-04-21T13:12:27;6.03;;;1.60;;
72603;SDS011;60645;56.968;24.196;2023-04-21T13:14:54;9.70;;;1.70;;
72603;SDS011;60645;56.968;24.196;2023-04-21T13:17:21;10.67;;;1.90;;
72603;SDS011;60645;56.968;24.196;2023-04-21T13:19:49;6.28;;;1.23;;
72603;SDS011;60645;56.968;24.196;2023-04-21T13:22:16;7.32;;;1.75;;
72603;SDS011;60645;56.968;24.196;2023-04-21T13:24:42;8.32;;;1.13;;
72603;SDS011;60645;56.968;24.196;2023-04-21T13:27:11;5.53;;;1.50;;
72603;SDS011;60645;56.968;24.196;2023-04-21T13:29:37;4.75;;;1.50;;
72603;SDS011;60645;56.968;24.196;2023-04-21T13:32:05;7.55;;;1.23;;
72603;SDS011;60645;56.968;24.196;2023-04-21T13:34:32;6.13;;;1.30;;
72603;SDS011;60645;56.968;24.196;2023-04-21T13:37:00;7.25;;;1.10;;
72603;SDS011;60645;56.968;24.196;2023-04-21T13:39:27;7.30;;;1.70;;
72603;SDS011;60645;56.968;24.196;2023-04-21T13:41:54;8.45;;;1.40;;
72603;SDS011;60645;56.968;24.196;2023-04-21T13:44:21;10.18;;;1.63;;
72603;SDS011;60645;56.968;24.196;2023-04-21T13:46:48;10.68;;;1.70;;
72603;SDS011;60645;56.968;24.196;2023-04-21T13:49:18;9.45;;;1.50;;
72603;SDS011;60645;56.968;24.196;2023-04-21T13:51:46;6.43;;;1.33;;
72603;SDS011;60645;56.968;24.196;2023-04-21T13:54:12;6.97;;;1.52;;
72603;SDS011;60645;56.968;24.196;2023-04-21T13:56:39;7.43;;;1.67;;
72603;SDS011;60645;56.968;24.196;2023-04-21T13:59:06;12.00;;;1.38;;
72603;SDS011;60645;56.968;24.196;2023-04-21T14:01:36;6.15;;;1.38;;
72603;SDS011;60645;56.968;24.196;2023-04-21T14:04:03;7.55;;;1.50;;
72603;SDS011;60645;56.968;24.196;2023-04-21T14:06:30;6.63;;;1.20;;
72603;SDS011;60645;56.968;24.196;2023-04-21T14:08:58;9.05;;;1.60;;
72603;SDS011;60645;56.968;24.196;2023-04-21T14:11:25;7.68;;;1.92;;
72603;SDS011;60645;56.968;24.196;2023-04-21T14:13:52;8.60;;;1.60;;
72603;SDS011;60645;56.968;24.196;2023-04-21T14:16:34;5.27;;;1.00;;
72603;SDS011;60645;56.968;24.196;2023-04-21T14:19:03;7.30;;;1.27;;
72603;SDS011;60645;56.968;24.196;2023-04-21T14:21:30;5.93;;;1.33;;
72603;SDS011;60645;56.968;24.196;2023-04-21T14:23:57;10.15;;;1.75;;
72603;SDS011;60645;56.968;24.196;2023-04-21T14:26:24;10.50;;;1.80;;
72603;SDS011;60645;56.968;24.196;2023-04-21T14:28:51;8.68;;;1.45;;
72603;SDS011;60645;56.968;24.196;2023-04-21T14:31:18;11.50;;;1.55;;
72603;SDS011;60645;56.968;24.196;2023-04-21T14:33:47;6.90;;;1.75;;
72603;SDS011;60645;56.968;24.196;2023-04-21T14:36:14;9.38;;;1.75;;
72603;SDS011;60645;56.968;24.196;2023-04-21T14:38:41;7.50;;;1.30;;
72603;SDS011;60645;56.968;24.196;2023-04-21T14:41:08;9.25;;;1.60;;
72603;SDS011;60645;56.968;24.196;2023-04-21T14:43:35;7.93;;;1.40;;
72603;SDS011;60645;56.968;24.196;2023-04-21T14:46:02;8.60;;;1.83;;
72603;SDS011;60645;56.968;24.196;2023-04-21T14:48:29;7.75;;;1.48;;
72603;SDS011;60645;56.968;24.196;2023-04-21T14:50:57;7.15;;;1.50;;
72603;SDS011;60645;56.968;24.196;2023-04-21T14:53:24;6.28;;;1.88;;
72603;SDS011;60645;56.968;24.196;2023-04-21T14:55:51;7.50;;;1.50;;
72603;SDS011;60645;56.968;24.196;2023-04-21T14:58:19;9.52;;;2.03;;
72603;SDS011;60645;56.968;24.196;2023-04-21T15:00:46;6.07;;;1.67;;
72603;SDS011;60645;56.968;24.196;2023-04-21T15:03:13;7.68;;;1.90;;
72603;SDS011;60645;56.968;24.196;2023-04-21T15:05:40;5.70;;;2.03;;
72603;SDS011;60645;56.968;24.196;2023-04-21T15:08:07;5.00;;;2.37;;